createdAt,value
2018-03-04T00:00:03.832Z,21.70
2018-03-04T00:02:31.995Z,20.80
2018-03-04T00:05:00.137Z,19.25
2018-03-04T00:07:28.293Z,19.25
2018-03-04T00:09:56.454Z,18.98
2018-03-04T00:12:24.609Z,20.40
2018-03-04T00:14:52.785Z,19.60
2018-03-04T00:17:20.942Z,20.55
2018-03-04T00:19:49.122Z,19.10
2018-03-04T00:22:17.296Z,23.85
2018-03-04T00:24:45.433Z,17.87
2018-03-04T00:27:14.353Z,20.20
2018-03-04T00:29:42.494Z,24.30
2018-03-04T00:32:11.416Z,21.02
2018-03-04T00:34:39.565Z,20.45
2018-03-04T00:37:08.494Z,19.80
2018-03-04T00:39:36.631Z,19.45
2018-03-04T00:42:05.554Z,21.77
2018-03-04T00:44:33.688Z,17.95
2018-03-04T00:47:02.614Z,23.87
2018-03-04T00:49:30.745Z,18.02
2018-03-04T00:51:58.920Z,20.00
2018-03-04T00:54:27.055Z,20.55
2018-03-04T00:56:55.230Z,21.00
2018-03-04T00:59:23.366Z,19.58
2018-03-04T01:01:51.501Z,18.15
2018-03-04T01:04:19.665Z,19.92
2018-03-04T01:06:48.660Z,20.35
2018-03-04T01:09:16.835Z,19.48
2018-03-04T01:11:44.976Z,22.15
2018-03-04T01:14:13.148Z,20.08
2018-03-04T01:16:41.281Z,18.40
2018-03-04T01:19:09.487Z,19.05
2018-03-04T01:21:37.641Z,20.30
2018-03-04T01:24:05.831Z,12.52
2018-03-04T01:26:34.491Z,20.05
2018-03-04T01:29:02.654Z,19.27
2018-03-04T01:31:30.814Z,19.83
2018-03-04T01:33:59.003Z,15.52
2018-03-04T01:36:27.143Z,21.30
2018-03-04T01:38:55.328Z,23.42
2018-03-04T01:41:23.477Z,21.52
2018-03-04T01:43:51.637Z,22.23
2018-03-04T01:46:19.774Z,21.10
2018-03-04T01:48:47.933Z,22.00
2018-03-04T01:51:16.115Z,9.63
2018-03-04T01:53:44.267Z,22.40
2018-03-04T01:56:12.401Z,18.30
2018-03-04T01:58:40.562Z,17.17
2018-03-04T02:01:08.697Z,22.98
2018-03-04T02:03:36.852Z,17.17
2018-03-04T02:06:04.984Z,16.42
2018-03-04T02:08:33.156Z,21.80
2018-03-04T02:11:01.294Z,19.67
2018-03-04T02:13:29.464Z,22.80
2018-03-04T02:15:57.597Z,21.60
2018-03-04T02:18:25.728Z,19.83
2018-03-04T02:20:53.888Z,22.10
2018-03-04T02:23:22.025Z,21.77
2018-03-04T02:25:50.190Z,21.00
2018-03-04T02:28:18.334Z,21.98
2018-03-04T02:30:46.495Z,18.95
2018-03-04T02:33:14.636Z,22.58
2018-03-04T02:35:42.790Z,19.48
2018-03-04T02:38:10.925Z,25.88
2018-03-04T02:40:39.092Z,23.62
2018-03-04T02:43:07.231Z,20.15
2018-03-04T02:45:35.389Z,23.27
2018-03-04T02:48:03.529Z,15.68
2018-03-04T02:50:31.706Z,17.48
2018-03-04T02:52:59.842Z,17.12
2018-03-04T02:55:28.014Z,17.40
2018-03-04T02:57:56.152Z,17.73
2018-03-04T03:00:24.311Z,20.75
2018-03-04T03:02:52.455Z,18.23
2018-03-04T03:05:21.377Z,19.92
2018-03-04T03:07:49.513Z,19.50
2018-03-04T03:10:18.439Z,20.65
2018-03-04T03:12:46.568Z,21.75
2018-03-04T03:15:14.716Z,20.08
2018-03-04T03:17:42.873Z,20.17
2018-03-04T03:20:11.013Z,20.12
2018-03-04T03:22:39.166Z,20.67
2018-03-04T03:25:07.302Z,18.25
2018-03-04T03:27:35.457Z,22.20
2018-03-04T03:30:03.595Z,22.90
2018-03-04T03:32:31.749Z,20.50
2018-03-04T03:34:59.880Z,19.67
2018-03-04T03:37:28.046Z,24.30
2018-03-04T03:39:56.180Z,21.37
2018-03-04T03:42:24.345Z,20.40
2018-03-04T03:44:52.481Z,19.55
2018-03-04T03:47:20.646Z,18.50
2018-03-04T03:49:48.792Z,19.85
2018-03-04T03:52:16.965Z,21.83
2018-03-04T03:54:45.868Z,19.58
2018-03-04T03:57:14.034Z,19.25
2018-03-04T03:59:42.177Z,22.75
2018-03-04T04:02:10.346Z,21.85
2018-03-04T04:04:38.486Z,20.83
2018-03-04T04:07:06.649Z,20.85
2018-03-04T04:09:34.786Z,22.00
2018-03-04T04:12:02.962Z,19.75
2018-03-04T04:14:31.104Z,22.40
2018-03-04T04:16:59.282Z,22.70
2018-03-04T04:19:27.417Z,21.73
2018-03-04T04:21:55.553Z,20.92
2018-03-04T04:24:23.715Z,20.88
2018-03-04T04:26:51.849Z,16.40
2018-03-04T04:29:20.013Z,17.73
2018-03-04T04:31:48.174Z,21.77
2018-03-04T04:34:16.334Z,19.55
2018-03-04T04:36:45.230Z,22.77
2018-03-04T04:39:13.388Z,21.75
2018-03-04T04:41:42.290Z,23.52
2018-03-04T04:44:10.445Z,19.35
2018-03-04T04:46:39.352Z,23.92
2018-03-04T04:49:07.519Z,21.58
2018-03-04T04:51:36.423Z,23.73
2018-03-04T04:54:04.577Z,20.75
2018-03-04T04:56:33.480Z,18.77
2018-03-04T04:59:01.634Z,17.85
2018-03-04T05:01:29.764Z,19.58
2018-03-04T05:03:57.923Z,22.33
2018-03-04T05:06:26.058Z,22.35
2018-03-04T05:08:54.222Z,17.62
2018-03-04T05:11:22.357Z,21.25
2018-03-04T05:13:50.517Z,24.70
2018-03-04T05:16:18.659Z,26.00
2018-03-04T05:18:46.817Z,27.20
2018-03-04T05:21:14.953Z,24.15
2018-03-04T05:23:43.123Z,24.73
2018-03-04T05:26:11.258Z,24.83
2018-03-04T05:28:39.416Z,25.95
2018-03-04T05:31:08.323Z,24.45
2018-03-04T05:33:36.473Z,25.83
2018-03-04T05:36:04.630Z,21.00
2018-03-04T05:38:32.821Z,24.30
2018-03-04T05:41:00.958Z,24.35
2018-03-04T05:43:29.088Z,16.75
2018-03-04T05:45:58.015Z,15.02
2018-03-04T05:48:26.165Z,26.35
2018-03-04T05:50:54.331Z,19.20
2018-03-04T05:53:23.243Z,18.50
2018-03-04T05:55:51.410Z,20.05
2018-03-04T05:58:19.543Z,24.12
2018-03-04T06:00:47.699Z,22.23
2018-03-04T06:03:15.838Z,24.12
2018-03-04T06:05:43.996Z,25.98
2018-03-04T06:08:12.154Z,25.62
2018-03-04T06:10:40.315Z,20.33
2018-03-04T06:13:08.454Z,25.85
2018-03-04T06:15:36.612Z,19.75
2018-03-04T06:18:04.746Z,25.48
2018-03-04T06:20:32.912Z,26.80
2018-03-04T06:23:01.815Z,23.45
2018-03-04T06:25:30.023Z,25.17
2018-03-04T06:27:58.153Z,20.58
2018-03-04T06:30:26.325Z,20.85
2018-03-04T06:32:54.465Z,24.02
2018-03-04T06:35:22.625Z,21.98
2018-03-04T06:37:50.762Z,22.00
2018-03-04T06:40:18.936Z,28.15
2018-03-04T06:42:47.077Z,23.33
2018-03-04T06:45:15.214Z,28.67
2018-03-04T06:47:43.368Z,21.27
2018-03-04T06:50:11.506Z,25.23
2018-03-04T06:52:39.664Z,25.70
2018-03-04T06:55:07.798Z,27.10
2018-03-04T06:57:35.959Z,20.45
2018-03-04T07:00:04.098Z,28.85
2018-03-04T07:02:32.259Z,26.98
2018-03-04T07:05:00.393Z,25.27
2018-03-04T07:07:28.566Z,24.73
2018-03-04T07:09:56.702Z,25.37
2018-03-04T07:12:24.857Z,28.02
2018-03-04T07:14:52.997Z,26.52
2018-03-04T07:17:21.152Z,27.58
2018-03-04T07:19:49.286Z,21.98
2018-03-04T07:22:17.456Z,21.67
2018-03-04T07:24:45.594Z,26.95
2018-03-04T07:27:13.756Z,25.02
2018-03-04T07:29:41.913Z,24.92
2018-03-04T07:32:10.102Z,25.90
2018-03-04T07:34:38.238Z,25.70
2018-03-04T07:37:06.397Z,22.77
2018-03-04T07:39:34.534Z,25.33
2018-03-04T07:42:02.694Z,25.70
2018-03-04T07:44:30.821Z,21.02
2018-03-04T07:46:58.980Z,25.08
2018-03-04T07:49:27.122Z,28.12
2018-03-04T07:51:55.290Z,25.27
2018-03-04T07:54:23.439Z,26.33
2018-03-04T07:56:51.636Z,25.33
2018-03-04T07:59:19.811Z,26.42
2018-03-04T08:01:47.961Z,30.12
2018-03-04T08:04:16.123Z,29.67
2018-03-04T08:06:44.256Z,30.30
2018-03-04T08:09:12.435Z,27.13
2018-03-04T08:11:40.576Z,31.77
2018-03-04T08:14:08.729Z,33.10
2018-03-04T08:16:36.866Z,28.95
2018-03-04T08:19:05.025Z,30.33
2018-03-04T08:21:33.173Z,31.77
2018-03-04T08:24:01.373Z,31.17
2018-03-04T08:26:41.379Z,32.88
2018-03-04T08:29:09.534Z,31.25
2018-03-04T08:31:38.432Z,33.30
2018-03-04T08:34:06.602Z,32.45
2018-03-04T08:36:35.508Z,31.75
2018-03-04T08:39:03.666Z,28.48
2018-03-04T08:41:32.570Z,31.73
2018-03-04T08:44:00.741Z,30.35
2018-03-04T08:46:28.879Z,30.23
2018-03-04T08:48:57.042Z,30.83
2018-03-04T08:51:25.181Z,29.70
2018-03-04T08:53:53.405Z,29.23
2018-03-04T08:56:31.431Z,29.55
2018-03-04T08:58:59.601Z,29.85
2018-03-04T09:01:28.563Z,26.50
2018-03-04T09:03:56.735Z,30.25
2018-03-04T09:06:25.085Z,30.37
2018-03-04T09:08:53.264Z,26.33
2018-03-04T09:11:21.400Z,26.67
2018-03-04T09:13:49.561Z,22.70
2018-03-04T09:16:18.479Z,28.20
2018-03-04T09:18:46.650Z,28.83
2018-03-04T09:21:14.793Z,28.23
2018-03-04T09:23:42.949Z,29.65
2018-03-04T09:26:11.086Z,25.80
2018-03-04T09:28:39.326Z,22.55
2018-03-04T09:31:07.467Z,31.90
2018-03-04T09:33:35.647Z,26.50
2018-03-04T09:36:03.789Z,26.08
2018-03-04T09:38:32.040Z,28.05
2018-03-04T09:41:00.185Z,25.40
2018-03-04T09:43:28.342Z,26.95
2018-03-04T09:45:56.627Z,30.23
2018-03-04T09:48:24.828Z,24.20
2018-03-04T09:50:53.001Z,29.02
2018-03-04T09:53:21.231Z,30.85
2018-03-04T09:55:49.366Z,20.40
2018-03-04T09:58:17.529Z,30.42
2018-03-04T10:00:45.675Z,32.28
2018-03-04T10:03:14.664Z,29.73
2018-03-04T10:05:42.804Z,33.67
2018-03-04T10:08:10.969Z,33.45
2018-03-04T10:10:39.285Z,26.75
2018-03-04T10:13:07.454Z,29.90
2018-03-04T10:15:35.628Z,30.88
2018-03-04T10:18:03.811Z,30.95
2018-03-04T10:20:31.966Z,28.67
2018-03-04T10:23:00.156Z,30.58
2018-03-04T10:25:28.315Z,31.58
2018-03-04T10:27:56.557Z,30.77
2018-03-04T10:30:24.725Z,31.98
2018-03-04T10:32:53.844Z,24.42
2018-03-04T10:35:21.993Z,27.60
2018-03-04T10:37:50.133Z,31.80
2018-03-04T10:40:19.084Z,32.08
2018-03-04T10:42:47.229Z,31.77
2018-03-04T10:45:15.439Z,30.98
2018-03-04T10:47:43.618Z,32.78
2018-03-04T10:50:11.867Z,30.55
2018-03-04T10:52:40.030Z,30.42
2018-03-04T10:55:08.200Z,31.12
2018-03-04T10:57:36.356Z,33.20
2018-03-04T11:00:04.539Z,24.95
2018-03-04T11:02:41.390Z,34.70
2018-03-04T11:05:09.559Z,32.47
2018-03-04T11:07:37.707Z,30.35
2018-03-04T11:10:05.931Z,29.58
2018-03-04T11:12:34.067Z,32.08
2018-03-04T11:15:02.290Z,30.90
2018-03-04T11:17:30.425Z,30.08
2018-03-04T11:19:58.589Z,31.83
2018-03-04T11:22:26.724Z,31.95
2018-03-04T11:24:54.884Z,31.80
2018-03-04T11:27:23.054Z,32.95
2018-03-04T11:29:51.184Z,33.13
2018-03-04T11:32:19.320Z,34.65
2018-03-04T11:34:47.489Z,34.40
2018-03-04T11:37:15.612Z,32.30
2018-03-04T11:39:43.774Z,31.27
2018-03-04T11:42:11.908Z,30.70
2018-03-04T11:44:40.066Z,31.20
2018-03-04T11:47:08.202Z,31.48
2018-03-04T11:49:36.364Z,31.48
2018-03-04T11:52:04.485Z,31.37
2018-03-04T11:54:32.694Z,34.25
2018-03-04T11:57:00.841Z,31.70
2018-03-04T11:59:29.005Z,28.98
2018-03-04T12:01:57.140Z,28.83
2018-03-04T12:04:25.298Z,28.00
2018-03-04T12:06:53.434Z,28.55
2018-03-04T12:09:21.606Z,32.38
2018-03-04T12:11:49.745Z,34.47
2018-03-04T12:14:17.909Z,32.05
2018-03-04T12:16:46.056Z,31.05
2018-03-04T12:19:14.235Z,28.60
2018-03-04T12:21:42.419Z,32.58
2018-03-04T12:24:10.601Z,30.12
2018-03-04T12:26:38.775Z,31.45
2018-03-04T12:29:06.941Z,32.83
2018-03-04T12:31:35.167Z,30.00
2018-03-04T12:34:03.267Z,32.40
2018-03-04T12:36:31.414Z,33.70
2018-03-04T12:38:59.599Z,31.20
2018-03-04T12:41:27.780Z,26.98
2018-03-04T12:43:55.923Z,32.35
2018-03-04T12:46:24.850Z,28.55
2018-03-04T12:48:52.987Z,31.05
2018-03-04T12:51:21.911Z,32.83
2018-03-04T12:53:50.077Z,28.67
2018-03-04T12:56:18.247Z,29.73
2018-03-04T12:58:46.408Z,30.25
2018-03-04T13:01:14.708Z,31.23
2018-03-04T13:03:42.824Z,30.50
2018-03-04T13:06:11.037Z,28.60
2018-03-04T13:08:39.177Z,31.20
2018-03-04T13:11:07.338Z,32.85
2018-03-04T13:13:35.465Z,27.83
2018-03-04T13:16:03.652Z,30.58
2018-03-04T13:18:31.790Z,27.33
2018-03-04T13:20:59.953Z,30.17
2018-03-04T13:23:28.084Z,28.85
2018-03-04T13:25:56.251Z,29.42
2018-03-04T13:28:24.383Z,28.62
2018-03-04T13:30:52.571Z,28.87
2018-03-04T13:33:20.702Z,29.50
2018-03-04T13:35:48.854Z,29.25
2018-03-04T13:38:16.991Z,30.00
2018-03-04T13:40:45.160Z,29.83
2018-03-04T13:43:13.295Z,29.12
2018-03-04T13:45:41.456Z,30.10
2018-03-04T13:48:09.613Z,29.92
2018-03-04T13:50:37.765Z,34.35
2018-03-04T13:53:05.917Z,39.83
2018-03-04T13:55:34.813Z,32.92
2018-03-04T13:58:02.976Z,30.10
2018-03-04T14:00:31.873Z,29.30
2018-03-04T14:03:00.031Z,29.58
2018-03-04T14:05:28.929Z,29.35
2018-03-04T14:07:57.110Z,31.60
2018-03-04T14:10:26.006Z,28.90
2018-03-04T14:12:54.260Z,28.60
2018-03-04T14:15:22.405Z,29.65
2018-03-04T14:17:50.571Z,29.37
2018-03-04T14:20:18.704Z,27.73
2018-03-04T14:22:46.858Z,30.12
2018-03-04T14:25:15.047Z,27.50
2018-03-04T14:27:43.197Z,29.15
2018-03-04T14:30:11.343Z,28.05
2018-03-04T14:32:39.501Z,29.90
2018-03-04T14:35:07.638Z,28.77
2018-03-04T14:37:35.809Z,30.37
2018-03-04T14:40:04.718Z,29.05
2018-03-04T14:42:32.927Z,28.08
2018-03-04T14:45:01.103Z,29.10
2018-03-04T14:47:29.250Z,27.45
2018-03-04T14:49:57.406Z,27.85
2018-03-04T14:52:25.561Z,27.70
2018-03-04T14:54:54.190Z,28.52
2018-03-04T14:57:22.327Z,27.92
2018-03-04T14:59:50.494Z,29.65
2018-03-04T15:02:18.638Z,27.73
2018-03-04T15:04:46.814Z,28.05
2018-03-04T15:07:14.951Z,29.58
2018-03-04T15:09:43.162Z,27.92
2018-03-04T15:12:11.304Z,25.75
2018-03-04T15:14:39.474Z,29.90
2018-03-04T15:17:07.618Z,27.00
2018-03-04T15:19:35.775Z,28.00
2018-03-04T15:22:04.690Z,26.42
2018-03-04T15:24:32.836Z,27.13
2018-03-04T15:27:01.747Z,25.05
2018-03-04T15:29:29.920Z,27.83
2018-03-04T15:31:58.878Z,26.95
2018-03-04T15:34:27.076Z,28.27
2018-03-04T15:36:55.224Z,28.62
2018-03-04T15:39:23.384Z,26.67
2018-03-04T15:41:51.562Z,26.83
2018-03-04T15:44:19.736Z,27.10
2018-03-04T15:46:47.885Z,25.48
2018-03-04T15:49:16.145Z,27.75
2018-03-04T15:51:44.368Z,27.17
2018-03-04T15:54:12.520Z,25.65
2018-03-04T15:56:40.704Z,26.02
2018-03-04T15:59:08.845Z,27.30
2018-03-04T16:01:37.080Z,27.95
2018-03-04T16:04:05.217Z,26.70
2018-03-04T16:06:34.250Z,26.30
2018-03-04T16:09:02.488Z,29.02
2018-03-04T16:11:30.651Z,27.98
2018-03-04T16:13:58.797Z,30.23
2018-03-04T16:16:27.098Z,27.37
2018-03-04T16:18:55.237Z,31.05
2018-03-04T16:21:23.411Z,31.95
2018-03-04T16:23:53.037Z,28.73
2018-03-04T16:26:21.231Z,29.95
2018-03-04T16:28:49.390Z,33.22
2018-03-04T16:31:17.583Z,26.62
2018-03-04T16:33:45.896Z,30.37
2018-03-04T16:36:14.850Z,31.35
2018-03-04T16:38:43.005Z,29.83
2018-03-04T16:41:11.381Z,28.12
2018-03-04T16:43:39.571Z,32.00
2018-03-04T16:46:07.773Z,31.42
2018-03-04T16:48:35.915Z,28.75
2018-03-04T16:51:04.231Z,29.00
2018-03-04T16:53:32.421Z,28.70
2018-03-04T16:56:00.634Z,31.73
2018-03-04T16:58:28.930Z,31.87
2018-03-04T17:00:57.270Z,29.87
2018-03-04T17:03:25.624Z,30.62
2018-03-04T17:05:54.352Z,30.05
2018-03-04T17:08:22.623Z,29.70
2018-03-04T17:10:50.921Z,30.83
2018-03-04T17:13:19.149Z,29.60
2018-03-04T17:15:48.660Z,32.95
2018-03-04T17:18:16.860Z,29.85
2018-03-04T17:20:45.076Z,31.12
2018-03-04T17:23:14.213Z,31.62
2018-03-04T17:25:43.203Z,32.53
2018-03-04T17:28:11.404Z,29.23
2018-03-04T17:30:39.662Z,30.10
2018-03-04T17:33:07.847Z,31.65
2018-03-04T17:35:36.588Z,31.12
2018-03-04T17:38:05.610Z,29.40
2018-03-04T17:40:33.774Z,28.48
2018-03-04T17:43:02.080Z,28.25
2018-03-04T17:45:30.229Z,31.60
2018-03-04T17:47:58.677Z,30.55
2018-03-04T17:50:27.926Z,26.37
2018-03-04T17:52:56.114Z,28.83
2018-03-04T17:55:24.382Z,28.35
2018-03-04T17:57:53.257Z,28.30
2018-03-04T18:00:22.173Z,25.20
2018-03-04T18:02:50.436Z,32.25
2018-03-04T18:05:18.572Z,29.60
2018-03-04T18:07:46.740Z,27.27
2018-03-04T18:10:14.882Z,27.73
2018-03-04T18:12:43.040Z,32.38
2018-03-04T18:15:11.182Z,27.50
2018-03-04T18:17:39.370Z,29.92
2018-03-04T18:20:07.536Z,29.98
2018-03-04T18:22:35.761Z,29.08
2018-03-04T18:25:04.014Z,29.75
2018-03-04T18:27:32.195Z,30.10
2018-03-04T18:30:00.356Z,31.17
2018-03-04T18:32:28.510Z,30.45
2018-03-04T18:34:56.690Z,32.00
2018-03-04T18:37:24.874Z,28.87
2018-03-04T18:39:53.076Z,32.75
2018-03-04T18:42:21.436Z,31.15
2018-03-04T18:44:49.614Z,32.15
2018-03-04T18:47:17.771Z,30.90
2018-03-04T18:49:46.052Z,29.05
2018-03-04T18:52:14.398Z,31.92
2018-03-04T18:54:42.820Z,30.90
2018-03-04T18:57:12.286Z,30.67
2018-03-04T18:59:41.198Z,31.83
2018-03-04T19:02:09.793Z,30.40
2018-03-04T19:04:38.946Z,32.97
2018-03-04T19:07:08.546Z,30.60
2018-03-04T19:09:37.571Z,32.13
2018-03-04T19:12:06.463Z,35.10
2018-03-04T19:14:34.734Z,33.65
2018-03-04T19:17:03.065Z,31.58
2018-03-04T19:19:31.257Z,30.62
2018-03-04T19:21:59.450Z,29.37
2018-03-04T19:24:27.602Z,30.75
2018-03-04T19:26:55.744Z,27.25
2018-03-04T19:29:24.172Z,30.27
2018-03-04T19:31:53.135Z,34.17
2018-03-04T19:34:21.293Z,33.08
2018-03-04T19:36:49.481Z,34.45
2018-03-04T19:39:17.728Z,31.65
2018-03-04T19:41:45.919Z,32.38
2018-03-04T19:44:14.111Z,34.97
2018-03-04T19:46:42.293Z,31.95
2018-03-04T19:49:10.448Z,35.55
2018-03-04T19:51:39.666Z,35.50
2018-03-04T19:54:07.850Z,32.20
2018-03-04T19:56:36.166Z,33.53
2018-03-04T19:59:04.464Z,31.33
2018-03-04T20:01:32.802Z,33.42
2018-03-04T20:04:01.710Z,31.77
2018-03-04T20:06:29.911Z,30.83
2018-03-04T20:08:58.086Z,33.97
2018-03-04T20:11:26.257Z,33.15
2018-03-04T20:13:54.439Z,33.95
2018-03-04T20:16:22.604Z,33.20
2018-03-04T20:18:50.823Z,32.97
2018-03-04T20:21:19.107Z,33.47
2018-03-04T20:23:47.254Z,32.65
2018-03-04T20:26:15.436Z,33.05
2018-03-04T20:28:43.574Z,33.42
2018-03-04T20:31:11.748Z,32.60
2018-03-04T20:33:39.946Z,32.03
2018-03-04T20:36:08.121Z,33.72
2018-03-04T20:38:36.691Z,34.65
2018-03-04T20:41:05.186Z,33.15
2018-03-04T20:43:33.363Z,34.45
2018-03-04T20:46:01.546Z,55.97
2018-03-04T20:48:29.906Z,33.45
2018-03-04T20:50:58.562Z,32.83
2018-03-04T20:53:27.063Z,32.92
2018-03-04T20:55:55.701Z,31.33
2018-03-04T20:58:24.116Z,35.28
2018-03-04T21:00:53.117Z,33.00
2018-03-04T21:03:21.502Z,33.25
2018-03-04T21:05:50.076Z,33.08
2018-03-04T21:08:18.510Z,32.20
2018-03-04T21:10:47.163Z,34.13
2018-03-04T21:13:28.443Z,31.75
2018-03-04T21:15:57.744Z,33.58
2018-03-04T21:18:26.131Z,32.70
2018-03-04T21:20:54.620Z,34.05
2018-03-04T21:23:23.773Z,33.25
2018-03-04T21:25:52.510Z,32.67
2018-03-04T21:28:20.732Z,34.00
2018-03-04T21:30:48.880Z,32.85
2018-03-04T21:33:17.091Z,32.90
2018-03-04T21:35:45.261Z,33.63
2018-03-04T21:38:13.423Z,34.60
2018-03-04T21:40:41.581Z,33.83
2018-03-04T21:43:09.747Z,33.15
2018-03-04T21:45:37.883Z,33.83
2018-03-04T21:48:06.037Z,34.33
2018-03-04T21:50:34.193Z,33.28
2018-03-04T21:53:02.350Z,32.80
2018-03-04T21:55:30.490Z,34.95
2018-03-04T21:57:58.664Z,34.70
2018-03-04T22:00:26.821Z,33.85
2018-03-04T22:02:54.987Z,33.55
2018-03-04T22:05:23.157Z,35.40
2018-03-04T22:07:51.330Z,32.55
2018-03-04T22:10:19.477Z,35.08
2018-03-04T22:12:47.666Z,32.90
2018-03-04T22:15:15.803Z,32.70
2018-03-04T22:17:44.044Z,31.23
2018-03-04T22:20:12.256Z,32.33
2018-03-04T22:22:40.445Z,32.20
2018-03-04T22:25:08.586Z,33.00
2018-03-04T22:27:37.514Z,30.85
2018-03-04T22:30:05.646Z,31.98
2018-03-04T22:32:33.810Z,33.88
2018-03-04T22:35:01.951Z,37.10
2018-03-04T22:37:30.114Z,33.88
2018-03-04T22:39:58.249Z,35.40
2018-03-04T22:42:27.179Z,32.38
2018-03-04T22:44:55.313Z,32.70
2018-03-04T22:47:24.247Z,38.28
2018-03-04T22:49:52.381Z,35.80
2018-03-04T22:52:21.317Z,34.58
2018-03-04T22:54:49.455Z,34.05
2018-03-04T22:57:18.375Z,33.20
2018-03-04T22:59:46.516Z,34.83
2018-03-04T23:02:15.437Z,33.22
2018-03-04T23:04:43.572Z,34.50
2018-03-04T23:07:12.499Z,32.58
2018-03-04T23:09:40.654Z,31.95
2018-03-04T23:12:08.824Z,35.35
2018-03-04T23:14:36.966Z,33.30
2018-03-04T23:17:05.125Z,31.83
2018-03-04T23:19:33.285Z,35.35
2018-03-04T23:22:01.421Z,33.72
2018-03-04T23:24:29.585Z,32.00
2018-03-04T23:26:57.722Z,33.00
2018-03-04T23:29:25.883Z,34.53
2018-03-04T23:31:54.018Z,36.45
2018-03-04T23:34:22.188Z,35.25
2018-03-04T23:36:50.322Z,34.30
2018-03-04T23:39:18.487Z,32.10
2018-03-04T23:41:46.628Z,31.87
2018-03-04T23:44:15.409Z,37.90
2018-03-04T23:46:43.552Z,34.08
2018-03-04T23:49:12.478Z,32.95
2018-03-04T23:51:40.622Z,33.40
2018-03-04T23:54:09.549Z,34.75
2018-03-04T23:56:37.683Z,36.42
2018-03-04T23:59:06.609Z,32.42
